sensor_id;sensor_type;location;lat;lon;timestamp;pressure;altitude;pressure_sealevel;temperature;humidity
49122;BME280;35529;44.342;25.944;2022-10-22T00:00:50;101471.66;;;6.10;100.00
49122;BME280;35529;44.342;25.944;2022-10-22T00:03:16;101472.50;;;6.01;100.00
49122;BME280;35529;44.342;25.944;2022-10-22T00:05:42;101460.69;;;5.95;100.00
49122;BME280;35529;44.342;25.944;2022-10-22T00:08:08;101462.50;;;5.85;100.00
49122;BME280;35529;44.342;25.944;2022-10-22T00:10:37;101457.13;;;5.77;100.00
49122;BME280;35529;44.342;25.944;2022-10-22T00:13:03;101460.03;;;5.74;100.00
49122;BME280;35529;44.342;25.944;2022-10-22T00:15:29;101455.03;;;5.70;100.00
49122;BME280;35529;44.342;25.944;2022-10-22T00:17:55;101460.03;;;5.64;100.00
49122;BME280;35529;44.342;25.944;2022-10-22T00:20:21;101457.69;;;5.51;100.00
49122;BME280;35529;44.342;25.944;2022-10-22T00:22:48;101470.03;;;5.41;100.00
49122;BME280;35529;44.342;25.944;2022-10-22T00:25:14;101455.47;;;5.36;100.00
49122;BME280;35529;44.342;25.944;2022-10-22T00:27:40;101456.28;;;5.17;100.00
49122;BME280;35529;44.342;25.944;2022-10-22T00:30:06;101453.91;;;5.04;100.00
49122;BME280;35529;44.342;25.944;2022-10-22T00:32:33;101460.31;;;5.12;100.00
49122;BME280;35529;44.342;25.944;2022-10-22T00:34:59;101444.09;;;5.16;100.00
49122;BME280;35529;44.342;25.944;2022-10-22T00:37:25;101442.97;;;5.19;100.00
49122;BME280;35529;44.342;25.944;2022-10-22T00:39:51;101442.28;;;5.17;100.00
49122;BME280;35529;44.342;25.944;2022-10-22T00:42:18;101441.59;;;5.15;100.00
49122;BME280;35529;44.342;25.944;2022-10-22T00:47:31;101437.28;;;5.04;100.00
49122;BME280;35529;44.342;25.944;2022-10-22T00:49:57;101439.06;;;5.03;100.00
49122;BME280;35529;44.342;25.944;2022-10-22T00:52:24;101434.66;;;5.04;100.00
49122;BME280;35529;44.342;25.944;2022-10-22T00:54:51;101434.66;;;5.04;100.00
49122;BME280;35529;44.342;25.944;2022-10-22T00:57:18;101427.16;;;4.99;100.00
49122;BME280;35529;44.342;25.944;2022-10-22T00:59:45;101427.97;;;4.90;100.00
49122;BME280;35529;44.342;25.944;2022-10-22T01:02:11;101432.94;;;4.83;100.00
49122;BME280;35529;44.342;25.944;2022-10-22T01:04:37;101422.16;;;4.86;100.00
49122;BME280;35529;44.342;25.944;2022-10-22T01:07:04;101420.78;;;4.92;100.00
49122;BME280;35529;44.342;25.944;2022-10-22T01:12:08;101421.94;;;5.19;100.00
49122;BME280;35529;44.342;25.944;2022-10-22T01:25:08;101408.59;;;5.69;100.00
49122;BME280;35529;44.342;25.944;2022-10-22T01:30:06;101401.63;;;5.88;100.00
49122;BME280;35529;44.342;25.944;2022-10-22T01:32:35;101393.97;;;5.95;100.00
49122;BME280;35529;44.342;25.944;2022-10-22T01:35:04;101390.94;;;5.99;100.00
49122;BME280;35529;44.342;25.944;2022-10-22T01:37:31;101390.78;;;6.01;100.00
49122;BME280;35529;44.342;25.944;2022-10-22T01:39:59;101387.84;;;6.04;100.00
49122;BME280;35529;44.342;25.944;2022-10-22T01:42:28;101401.19;;;6.02;100.00
49122;BME280;35529;44.342;25.944;2022-10-22T01:44:54;101387.72;;;5.96;100.00
49122;BME280;35529;44.342;25.944;2022-10-22T01:47:42;101396.06;;;5.91;100.00
49122;BME280;35529;44.342;25.944;2022-10-22T01:52:47;101378.88;;;5.87;100.00
49122;BME280;35529;44.342;25.944;2022-10-22T01:55:40;101371.78;;;5.87;100.00
49122;BME280;35529;44.342;25.944;2022-10-22T02:00:50;101373.31;;;5.90;100.00
49122;BME280;35529;44.342;25.944;2022-10-22T02:03:23;101374.69;;;5.94;100.00
49122;BME280;35529;44.342;25.944;2022-10-22T02:05:53;101372.34;;;6.01;100.00
49122;BME280;35529;44.342;25.944;2022-10-22T02:08:21;101359.69;;;6.04;100.00
49122;BME280;35529;44.342;25.944;2022-10-22T02:10:48;101360.53;;;6.05;100.00
49122;BME280;35529;44.342;25.944;2022-10-22T02:13:16;101357.06;;;6.04;100.00
49122;BME280;35529;44.342;25.944;2022-10-22T02:15:43;101357.38;;;6.01;100.00
49122;BME280;35529;44.342;25.944;2022-10-22T02:18:11;101353.28;;;5.97;100.00
49122;BME280;35529;44.342;25.944;2022-10-22T02:20:39;101356.94;;;5.96;100.00
49122;BME280;35529;44.342;25.944;2022-10-22T02:23:06;101347.50;;;5.94;100.00
49122;BME280;35529;44.342;25.944;2022-10-22T02:25:34;101342.22;;;5.94;100.00
49122;BME280;35529;44.342;25.944;2022-10-22T02:28:03;101349.28;;;5.93;100.00
49122;BME280;35529;44.342;25.944;2022-10-22T02:30:30;101348.47;;;5.93;100.00
49122;BME280;35529;44.342;25.944;2022-10-22T02:35:33;101344.31;;;5.90;100.00
49122;BME280;35529;44.342;25.944;2022-10-22T02:38:02;101333.78;;;5.90;100.00
49122;BME280;35529;44.342;25.944;2022-10-22T02:40:29;101319.31;;;5.94;100.00
49122;BME280;35529;44.342;25.944;2022-10-22T02:42:56;101322.25;;;6.01;100.00
49122;BME280;35529;44.342;25.944;2022-10-22T02:45:22;101334.75;;;5.99;100.00
49122;BME280;35529;44.342;25.944;2022-10-22T02:47:48;101338.25;;;5.80;100.00
49122;BME280;35529;44.342;25.944;2022-10-22T02:50:14;101342.16;;;5.66;100.00
49122;BME280;35529;44.342;25.944;2022-10-22T02:52:41;101336.75;;;5.67;100.00
49122;BME280;35529;44.342;25.944;2022-10-22T02:55:07;101333.81;;;5.70;100.00
49122;BME280;35529;44.342;25.944;2022-10-22T02:57:33;101341.47;;;5.64;100.00
49122;BME280;35529;44.342;25.944;2022-10-22T02:59:59;101346.09;;;5.42;100.00
49122;BME280;35529;44.342;25.944;2022-10-22T03:02:25;101335.44;;;5.34;100.00
49122;BME280;35529;44.342;25.944;2022-10-22T03:04:51;101342.91;;;5.29;100.00
49122;BME280;35529;44.342;25.944;2022-10-22T03:07:18;101341.28;;;5.18;100.00
49122;BME280;35529;44.342;25.944;2022-10-22T03:09:44;101341.28;;;5.08;100.00
49122;BME280;35529;44.342;25.944;2022-10-22T03:12:10;101343.50;;;5.03;100.00
49122;BME280;35529;44.342;25.944;2022-10-22T03:14:36;101335.16;;;5.08;100.00
49122;BME280;35529;44.342;25.944;2022-10-22T03:17:02;101330.34;;;5.23;100.00
49122;BME280;35529;44.342;25.944;2022-10-22T03:19:28;101329.06;;;5.36;100.00
49122;BME280;35529;44.342;25.944;2022-10-22T03:22:01;101321.84;;;5.48;100.00
49122;BME280;35529;44.342;25.944;2022-10-22T03:24:30;101334.31;;;5.56;100.00
49122;BME280;35529;44.342;25.944;2022-10-22T03:26:59;101339.28;;;5.59;100.00
49122;BME280;35529;44.342;25.944;2022-10-22T03:29:25;101349.38;;;5.64;100.00
49122;BME280;35529;44.342;25.944;2022-10-22T03:31:52;101353.28;;;5.69;100.00
49122;BME280;35529;44.342;25.944;2022-10-22T03:34:21;101366.44;;;5.69;100.00
49122;BME280;35529;44.342;25.944;2022-10-22T03:36:50;101363.69;;;5.61;100.00
49122;BME280;35529;44.342;25.944;2022-10-22T03:39:17;101356.22;;;5.47;100.00
49122;BME280;35529;44.342;25.944;2022-10-22T03:41:44;101358.72;;;5.29;100.00
49122;BME280;35529;44.342;25.944;2022-10-22T03:44:11;101354.31;;;5.29;100.00
49122;BME280;35529;44.342;25.944;2022-10-22T03:46:37;101347.63;;;5.35;100.00
49122;BME280;35529;44.342;25.944;2022-10-22T03:49:04;101342.34;;;5.45;100.00
49122;BME280;35529;44.342;25.944;2022-10-22T03:51:32;101348.72;;;5.52;100.00
49122;BME280;35529;44.342;25.944;2022-10-22T03:53:59;101349.66;;;5.61;100.00
49122;BME280;35529;44.342;25.944;2022-10-22T03:56:25;101336.75;;;5.67;100.00
49122;BME280;35529;44.342;25.944;2022-10-22T03:58:54;101328.44;;;5.72;100.00
49122;BME280;35529;44.342;25.944;2022-10-22T04:01:20;101342.00;;;5.77;100.00
49122;BME280;35529;44.342;25.944;2022-10-22T04:03:46;101347.00;;;5.80;100.00
49122;BME280;35529;44.342;25.944;2022-10-22T04:06:13;101347.66;;;5.82;100.00
49122;BME280;35529;44.342;25.944;2022-10-22T04:08:39;101347.50;;;5.84;100.00
49122;BME280;35529;44.342;25.944;2022-10-22T04:11:08;101348.91;;;5.88;100.00
49122;BME280;35529;44.342;25.944;2022-10-22T04:13:37;101346.66;;;5.93;100.00
49122;BME280;35529;44.342;25.944;2022-10-22T04:16:10;101347.19;;;6.07;100.00
49122;BME280;35529;44.342;25.944;2022-10-22T04:18:37;101334.38;;;6.22;100.00
49122;BME280;35529;44.342;25.944;2022-10-22T04:21:06;101338.97;;;6.37;100.00
49122;BME280;35529;44.342;25.944;2022-10-22T04:23:33;101342.56;;;6.46;100.00
49122;BME280;35529;44.342;25.944;2022-10-22T04:25:59;101338.66;;;6.50;100.00
49122;BME280;35529;44.342;25.944;2022-10-22T04:28:26;101342.56;;;6.46;100.00
49122;BME280;35529;44.342;25.944;2022-10-22T04:30:52;101338.97;;;6.37;100.00
49122;BME280;35529;44.342;25.944;2022-10-22T04:33:18;101336.47;;;6.46;100.00
49122;BME280;35529;44.342;25.944;2022-10-22T04:35:44;101335.28;;;6.58;100.00
49122;BME280;35529;44.342;25.944;2022-10-22T04:38:10;101336.31;;;6.65;100.00
49122;BME280;35529;44.342;25.944;2022-10-22T04:40:36;101330.78;;;6.68;100.00
49122;BME280;35529;44.342;25.944;2022-10-22T04:43:02;101317.69;;;6.67;100.00
49122;BME280;35529;44.342;25.944;2022-10-22T04:45:29;101324.63;;;6.68;100.00
49122;BME280;35529;44.342;25.944;2022-10-22T04:47:55;101306.25;;;6.76;100.00
49122;BME280;35529;44.342;25.944;2022-10-22T04:50:21;101323.66;;;6.87;100.00
49122;BME280;35529;44.342;25.944;2022-10-22T04:52:47;101324.78;;;7.02;100.00
49122;BME280;35529;44.342;25.944;2022-10-22T04:55:13;101324.66;;;7.04;100.00
49122;BME280;35529;44.342;25.944;2022-10-22T04:57:39;101330.84;;;7.13;100.00
49122;BME280;35529;44.342;25.944;2022-10-22T05:00:08;101327.72;;;7.17;100.00
49122;BME280;35529;44.342;25.944;2022-10-22T05:02:34;101330.91;;;7.21;100.00
49122;BME280;35529;44.342;25.944;2022-10-22T05:05:01;101342.66;;;7.27;100.00
49122;BME280;35529;44.342;25.944;2022-10-22T05:07:27;101341.75;;;7.36;100.00
49122;BME280;35529;44.342;25.944;2022-10-22T05:09:53;101342.41;;;7.38;100.00
49122;BME280;35529;44.342;25.944;2022-10-22T05:12:19;101340.16;;;7.25;100.00
49122;BME280;35529;44.342;25.944;2022-10-22T05:14:45;101344.38;;;7.18;100.00
49122;BME280;35529;44.342;25.944;2022-10-22T05:17:11;101346.59;;;7.22;100.00
49122;BME280;35529;44.342;25.944;2022-10-22T05:19:37;101349.59;;;7.28;100.00
49122;BME280;35529;44.342;25.944;2022-10-22T05:22:03;101353.13;;;7.36;100.00
49122;BME280;35529;44.342;25.944;2022-10-22T05:24:30;101352.03;;;7.47;100.00
49122;BME280;35529;44.342;25.944;2022-10-22T05:26:57;101347.34;;;7.59;100.00
49122;BME280;35529;44.342;25.944;2022-10-22T05:29:24;101334.91;;;7.78;100.00
49122;BME280;35529;44.342;25.944;2022-10-22T05:31:50;101337.31;;;7.97;100.00
49122;BME280;35529;44.342;25.944;2022-10-22T05:34:17;101330.13;;;8.16;100.00
49122;BME280;35529;44.342;25.944;2022-10-22T05:36:43;101330.53;;;8.29;100.00
49122;BME280;35529;44.342;25.944;2022-10-22T05:39:09;101327.22;;;8.44;100.00
49122;BME280;35529;44.342;25.944;2022-10-22T05:41:36;101322.69;;;8.62;100.00
49122;BME280;35529;44.342;25.944;2022-10-22T05:44:03;101313.75;;;8.80;100.00
49122;BME280;35529;44.342;25.944;2022-10-22T05:46:31;101309.16;;;8.90;100.00
49122;BME280;35529;44.342;25.944;2022-10-22T05:48:59;101312.78;;;8.97;100.00
49122;BME280;35529;44.342;25.944;2022-10-22T05:51:28;101305.69;;;9.06;100.00
49122;BME280;35529;44.342;25.944;2022-10-22T05:53:57;101297.88;;;9.21;100.00
49122;BME280;35529;44.342;25.944;2022-10-22T05:56:23;101294.72;;;9.34;100.00
49122;BME280;35529;44.342;25.944;2022-10-22T05:58:50;101287.09;;;9.47;100.00
49122;BME280;35529;44.342;25.944;2022-10-22T06:01:17;101295.50;;;9.59;100.00
49122;BME280;35529;44.342;25.944;2022-10-22T06:03:44;101297.28;;;9.67;100.00
49122;BME280;35529;44.342;25.944;2022-10-22T06:08:43;101312.50;;;9.81;100.00
49122;BME280;35529;44.342;25.944;2022-10-22T06:11:10;101312.66;;;9.88;100.00
49122;BME280;35529;44.342;25.944;2022-10-22T06:13:36;101314.44;;;9.96;100.00
49122;BME280;35529;44.342;25.944;2022-10-22T06:16:03;101304.28;;;10.07;100.00
49122;BME280;35529;44.342;25.944;2022-10-22T06:18:29;101302.72;;;10.21;100.00
49122;BME280;35529;44.342;25.944;2022-10-22T06:20:55;101289.38;;;10.38;100.00
49122;BME280;35529;44.342;25.944;2022-10-22T06:23:21;101295.78;;;10.52;100.00
49122;BME280;35529;44.342;25.944;2022-10-22T06:25:57;101282.41;;;10.68;100.00
49122;BME280;35529;44.342;25.944;2022-10-22T06:28:24;101280.63;;;10.84;100.00
49122;BME280;35529;44.342;25.944;2022-10-22T06:30:50;101278.53;;;10.94;100.00
49122;BME280;35529;44.342;25.944;2022-10-22T06:33:16;101276.47;;;11.04;100.00
49122;BME280;35529;44.342;25.944;2022-10-22T06:35:42;101271.81;;;11.06;100.00
49122;BME280;35529;44.342;25.944;2022-10-22T06:38:10;101279.94;;;11.05;100.00
49122;BME280;35529;44.342;25.944;2022-10-22T06:40:36;101277.47;;;11.03;100.00
49122;BME280;35529;44.342;25.944;2022-10-22T06:43:03;101279.50;;;11.01;100.00
49122;BME280;35529;44.342;25.944;2022-10-22T06:45:30;101281.28;;;11.01;100.00
49122;BME280;35529;44.342;25.944;2022-10-22T06:47:57;101282.25;;;11.08;100.00
49122;BME280;35529;44.342;25.944;2022-10-22T06:50:23;101274.81;;;11.18;100.00
49122;BME280;35529;44.342;25.944;2022-10-22T06:52:49;101285.22;;;11.28;100.00
49122;BME280;35529;44.342;25.944;2022-10-22T06:55:16;101276.97;;;11.38;100.00
49122;BME280;35529;44.342;25.944;2022-10-22T06:57:42;101276.88;;;11.46;100.00
49122;BME280;35529;44.342;25.944;2022-10-22T07:00:08;101264.69;;;11.52;100.00
49122;BME280;35529;44.342;25.944;2022-10-22T07:02:34;101270.56;;;11.62;100.00
49122;BME280;35529;44.342;25.944;2022-10-22T07:05:00;101264.41;;;11.77;100.00
49122;BME280;35529;44.342;25.944;2022-10-22T07:07:27;101272.19;;;11.93;100.00
49122;BME280;35529;44.342;25.944;2022-10-22T07:09:53;101271.75;;;12.04;100.00
49122;BME280;35529;44.342;25.944;2022-10-22T07:15:18;101278.25;;;12.17;100.00
49122;BME280;35529;44.342;25.944;2022-10-22T07:17:44;101288.16;;;12.23;100.00
49122;BME280;35529;44.342;25.944;2022-10-22T07:20:10;101274.78;;;12.38;100.00
49122;BME280;35529;44.342;25.944;2022-10-22T07:22:37;101269.47;;;12.60;100.00
49122;BME280;35529;44.342;25.944;2022-10-22T07:25:03;101286.03;;;12.77;100.00
49122;BME280;35529;44.342;25.944;2022-10-22T07:27:29;101281.00;;;12.88;100.00
49122;BME280;35529;44.342;25.944;2022-10-22T07:29:55;101287.03;;;12.97;100.00
49122;BME280;35529;44.342;25.944;2022-10-22T07:32:21;101284.81;;;13.01;100.00
49122;BME280;35529;44.342;25.944;2022-10-22T07:34:47;101290.19;;;13.07;100.00
49122;BME280;35529;44.342;25.944;2022-10-22T07:37:14;101284.88;;;13.07;100.00
49122;BME280;35529;44.342;25.944;2022-10-22T07:39:40;101288.66;;;13.20;100.00
49122;BME280;35529;44.342;25.944;2022-10-22T07:42:06;101286.22;;;13.25;100.00
49122;BME280;35529;44.342;25.944;2022-10-22T07:44:32;101287.56;;;13.36;100.00
49122;BME280;35529;44.342;25.944;2022-10-22T07:46:58;101280.22;;;13.45;100.00
49122;BME280;35529;44.342;25.944;2022-10-22T07:49:24;101287.69;;;13.56;100.00
49122;BME280;35529;44.342;25.944;2022-10-22T07:51:50;101287.53;;;13.64;100.00
49122;BME280;35529;44.342;25.944;2022-10-22T07:54:17;101286.59;;;13.79;100.00
49122;BME280;35529;44.342;25.944;2022-10-22T07:56:44;101278.44;;;13.94;100.00
49122;BME280;35529;44.342;25.944;2022-10-22T07:59:10;101271.94;;;14.10;100.00
49122;BME280;35529;44.342;25.944;2022-10-22T08:01:36;101277.31;;;14.30;100.00
49122;BME280;35529;44.342;25.944;2022-10-22T08:04:02;101268.31;;;14.44;100.00
49122;BME280;35529;44.342;25.944;2022-10-22T08:06:28;101268.75;;;14.61;100.00
49122;BME280;35529;44.342;25.944;2022-10-22T08:08:55;101274.97;;;14.82;100.00
49122;BME280;35529;44.342;25.944;2022-10-22T08:11:21;101271.47;;;15.01;100.00
49122;BME280;35529;44.342;25.944;2022-10-22T08:13:47;101276.81;;;15.15;100.00
49122;BME280;35529;44.342;25.944;2022-10-22T08:16:13;101265.09;;;15.16;100.00
49122;BME280;35529;44.342;25.944;2022-10-22T08:18:39;101261.38;;;15.17;100.00
49122;BME280;35529;44.342;25.944;2022-10-22T08:21:05;101277.84;;;15.27;100.00
49122;BME280;35529;44.342;25.944;2022-10-22T08:23:32;101273.50;;;15.39;100.00
49122;BME280;35529;44.342;25.944;2022-10-22T08:26:01;101260.88;;;15.60;100.00
49122;BME280;35529;44.342;25.944;2022-10-22T08:28:30;101276.09;;;15.73;100.00
49122;BME280;35529;44.342;25.944;2022-10-22T08:31:03;101280.81;;;15.84;98.85
49122;BME280;35529;44.342;25.944;2022-10-22T08:33:29;101274.59;;;15.90;98.02
49122;BME280;35529;44.342;25.944;2022-10-22T08:35:55;101269.81;;;15.99;97.33
49122;BME280;35529;44.342;25.944;2022-10-22T08:38:21;101265.72;;;16.03;96.69
49122;BME280;35529;44.342;25.944;2022-10-22T08:40:48;101266.22;;;16.19;95.57
49122;BME280;35529;44.342;25.944;2022-10-22T08:43:36;101268.84;;;16.32;94.24
49122;BME280;35529;44.342;25.944;2022-10-22T08:46:11;101268.00;;;16.38;92.03
49122;BME280;35529;44.342;25.944;2022-10-22T08:48:44;101267.44;;;16.23;91.56
49122;BME280;35529;44.342;25.944;2022-10-22T08:51:16;101269.66;;;16.33;92.03
49122;BME280;35529;44.342;25.944;2022-10-22T08:56:27;101265.44;;;16.50;90.37
49122;BME280;35529;44.342;25.944;2022-10-22T09:01:27;101269.00;;;16.69;89.66
49122;BME280;35529;44.342;25.944;2022-10-22T09:03:57;101278.72;;;16.70;88.14
49122;BME280;35529;44.342;25.944;2022-10-22T09:06:25;101276.13;;;16.82;88.32
49122;BME280;35529;44.342;25.944;2022-10-22T09:08:51;101275.31;;;16.82;85.43
49122;BME280;35529;44.342;25.944;2022-10-22T09:11:21;101272.63;;;16.82;86.19
49122;BME280;35529;44.342;25.944;2022-10-22T09:13:49;101271.50;;;16.96;85.87
49122;BME280;35529;44.342;25.944;2022-10-22T09:16:17;101264.22;;;17.03;85.40
49122;BME280;35529;44.342;25.944;2022-10-22T09:21:32;101267.50;;;17.05;85.05
49122;BME280;35529;44.342;25.944;2022-10-22T09:24:03;101257.97;;;17.09;84.99
49122;BME280;35529;44.342;25.944;2022-10-22T09:26:30;101251.72;;;17.16;84.44
49122;BME280;35529;44.342;25.944;2022-10-22T09:28:58;101248.38;;;17.20;83.35
49122;BME280;35529;44.342;25.944;2022-10-22T09:31:25;101250.78;;;17.29;83.51
49122;BME280;35529;44.342;25.944;2022-10-22T09:33:51;101246.00;;;17.31;82.92
49122;BME280;35529;44.342;25.944;2022-10-22T09:36:20;101251.09;;;17.39;83.93
49122;BME280;35529;44.342;25.944;2022-10-22T09:38:51;101238.56;;;17.51;83.16
49122;BME280;35529;44.342;25.944;2022-10-22T09:41:25;101227.28;;;17.42;82.04
49122;BME280;35529;44.342;25.944;2022-10-22T09:43:51;101222.91;;;17.48;82.17
49122;BME280;35529;44.342;25.944;2022-10-22T09:46:19;101215.34;;;17.57;82.27
49122;BME280;35529;44.342;25.944;2022-10-22T09:51:25;101215.97;;;17.59;81.51
49122;BME280;35529;44.342;25.944;2022-10-22T09:54:01;101212.50;;;17.52;82.63
49122;BME280;35529;44.342;25.944;2022-10-22T09:56:32;101215.50;;;17.43;83.78
49122;BME280;35529;44.342;25.944;2022-10-22T09:59:00;101210.44;;;17.35;84.46
49122;BME280;35529;44.342;25.944;2022-10-22T10:01:28;101204.91;;;17.30;84.14
49122;BME280;35529;44.342;25.944;2022-10-22T10:04:12;101193.59;;;17.28;85.46
49122;BME280;35529;44.342;25.944;2022-10-22T10:06:40;101200.59;;;17.29;85.84
49122;BME280;35529;44.342;25.944;2022-10-22T10:09:17;101188.81;;;17.30;85.24
49122;BME280;35529;44.342;25.944;2022-10-22T10:11:48;101193.22;;;17.43;83.82
49122;BME280;35529;44.342;25.944;2022-10-22T10:14:26;101189.19;;;17.52;82.55
49122;BME280;35529;44.342;25.944;2022-10-22T10:22:09;101177.72;;;17.75;81.66
49122;BME280;35529;44.342;25.944;2022-10-22T10:27:04;101175.72;;;18.32;79.65
49122;BME280;35529;44.342;25.944;2022-10-22T10:29:48;101189.66;;;18.52;78.80
49122;BME280;35529;44.342;25.944;2022-10-22T10:37:35;101175.16;;;18.65;74.55
49122;BME280;35529;44.342;25.944;2022-10-22T10:40:18;101163.94;;;18.56;75.36
49122;BME280;35529;44.342;25.944;2022-10-22T10:42:50;101152.25;;;18.63;74.88
49122;BME280;35529;44.342;25.944;2022-10-22T10:45:41;101147.66;;;18.63;74.68
49122;BME280;35529;44.342;25.944;2022-10-22T10:49:08;101151.09;;;18.70;75.99
49122;BME280;35529;44.342;25.944;2022-10-22T10:56:11;101138.78;;;18.86;75.59
49122;BME280;35529;44.342;25.944;2022-10-22T11:01:45;101119.38;;;18.96;75.44
49122;BME280;35529;44.342;25.944;2022-10-22T11:04:22;101115.28;;;18.93;75.71
49122;BME280;35529;44.342;25.944;2022-10-22T11:06:52;101104.88;;;18.97;74.93
49122;BME280;35529;44.342;25.944;2022-10-22T11:09:23;101103.47;;;18.95;74.46
49122;BME280;35529;44.342;25.944;2022-10-22T11:17:15;101098.50;;;19.15;75.83
49122;BME280;35529;44.342;25.944;2022-10-22T11:22:10;101090.94;;;19.41;74.08
49122;BME280;35529;44.342;25.944;2022-10-22T11:25:40;101093.50;;;19.48;73.42
49122;BME280;35529;44.342;25.944;2022-10-22T11:30:13;101073.16;;;19.86;71.71
49122;BME280;35529;44.342;25.944;2022-10-22T11:32:40;101058.44;;;20.10;70.46
49122;BME280;35529;44.342;25.944;2022-10-22T11:35:08;101055.84;;;20.33;68.85
49122;BME280;35529;44.342;25.944;2022-10-22T11:37:37;101054.97;;;20.49;66.23
49122;BME280;35529;44.342;25.944;2022-10-22T11:40:07;101053.00;;;20.62;65.37
49122;BME280;35529;44.342;25.944;2022-10-22T11:42:41;101045.38;;;20.75;63.14
49122;BME280;35529;44.342;25.944;2022-10-22T11:50:46;101034.22;;;20.50;62.28
49122;BME280;35529;44.342;25.944;2022-10-22T11:53:34;101030.06;;;20.42;61.65
49122;BME280;35529;44.342;25.944;2022-10-22T11:58:39;101033.22;;;20.17;61.51
49122;BME280;35529;44.342;25.944;2022-10-22T12:03:39;101025.72;;;20.19;63.95
49122;BME280;35529;44.342;25.944;2022-10-22T12:08:55;101024.16;;;20.06;62.35
49122;BME280;35529;44.342;25.944;2022-10-22T12:16:55;101002.44;;;19.96;63.54
49122;BME280;35529;44.342;25.944;2022-10-22T12:22:06;101000.66;;;19.84;64.25
49122;BME280;35529;44.342;25.944;2022-10-22T12:24:45;101015.03;;;19.90;64.64
49122;BME280;35529;44.342;25.944;2022-10-22T12:27:32;100994.78;;;19.87;64.79
49122;BME280;35529;44.342;25.944;2022-10-22T12:30:12;100984.22;;;20.03;64.92
49122;BME280;35529;44.342;25.944;2022-10-22T12:32:44;100981.09;;;20.11;63.26
49122;BME280;35529;44.342;25.944;2022-10-22T12:35:15;100978.78;;;20.20;64.54
49122;BME280;35529;44.342;25.944;2022-10-22T12:37:54;100974.97;;;20.16;63.04
49122;BME280;35529;44.342;25.944;2022-10-22T12:45:21;100979.22;;;20.12;64.36
49122;BME280;35529;44.342;25.944;2022-10-22T12:47:47;100980.84;;;20.13;64.32
49122;BME280;35529;44.342;25.944;2022-10-22T12:50:18;100985.81;;;20.21;64.73
49122;BME280;35529;44.342;25.944;2022-10-22T12:52:46;100984.69;;;20.17;65.66
49122;BME280;35529;44.342;25.944;2022-10-22T12:55:15;100977.09;;;20.14;66.00
49122;BME280;35529;44.342;25.944;2022-10-22T12:57:42;100982.75;;;20.12;65.71
49122;BME280;35529;44.342;25.944;2022-10-22T13:00:20;100974.47;;;20.19;66.62
49122;BME280;35529;44.342;25.944;2022-10-22T13:02:47;100975.38;;;20.24;65.96
49122;BME280;35529;44.342;25.944;2022-10-22T13:05:21;100978.59;;;20.26;65.43
49122;BME280;35529;44.342;25.944;2022-10-22T13:07:48;100965.28;;;20.37;64.61
49122;BME280;35529;44.342;25.944;2022-10-22T13:10:17;100968.91;;;20.48;63.93
49122;BME280;35529;44.342;25.944;2022-10-22T13:12:47;100961.50;;;20.60;64.67
49122;BME280;35529;44.342;25.944;2022-10-22T13:15:38;100953.22;;;20.67;65.42
49122;BME280;35529;44.342;25.944;2022-10-22T13:20:33;100938.88;;;20.83;65.21
49122;BME280;35529;44.342;25.944;2022-10-22T13:23:04;100927.63;;;20.91;65.75
49122;BME280;35529;44.342;25.944;2022-10-22T13:25:31;100928.00;;;21.05;66.24
49122;BME280;35529;44.342;25.944;2022-10-22T13:27:59;100922.72;;;21.16;65.17
49122;BME280;35529;44.342;25.944;2022-10-22T13:30:33;100928.09;;;21.16;64.12
49122;BME280;35529;44.342;25.944;2022-10-22T13:33:00;100925.34;;;21.10;62.78
49122;BME280;35529;44.342;25.944;2022-10-22T13:35:28;100925.25;;;21.00;63.20
49122;BME280;35529;44.342;25.944;2022-10-22T13:37:55;100923.03;;;20.92;65.03
49122;BME280;35529;44.342;25.944;2022-10-22T13:40:21;100921.59;;;20.84;65.84
49122;BME280;35529;44.342;25.944;2022-10-22T13:42:47;100921.25;;;20.75;65.98
49122;BME280;35529;44.342;25.944;2022-10-22T13:45:18;100926.06;;;20.73;65.71
49122;BME280;35529;44.342;25.944;2022-10-22T13:47:48;100931.47;;;20.73;65.61
49122;BME280;35529;44.342;25.944;2022-10-22T13:50:17;100935.16;;;20.67;66.09
49122;BME280;35529;44.342;25.944;2022-10-22T13:52:49;100935.28;;;20.55;67.49
49122;BME280;35529;44.342;25.944;2022-10-22T13:55:24;100917.03;;;20.40;69.00
49122;BME280;35529;44.342;25.944;2022-10-22T13:57:57;100923.06;;;20.25;70.66
49122;BME280;35529;44.342;25.944;2022-10-22T14:00:25;100925.31;;;20.12;71.63
49122;BME280;35529;44.342;25.944;2022-10-22T14:02:53;100924.34;;;20.01;73.21
49122;BME280;35529;44.342;25.944;2022-10-22T14:05:20;100919.31;;;19.87;73.52
49122;BME280;35529;44.342;25.944;2022-10-22T14:07:49;100909.44;;;19.76;74.67
49122;BME280;35529;44.342;25.944;2022-10-22T14:12:42;100913.69;;;19.55;76.64
49122;BME280;35529;44.342;25.944;2022-10-22T14:15:09;100916.81;;;19.47;76.81
49122;BME280;35529;44.342;25.944;2022-10-22T14:17:36;100916.47;;;19.43;76.47
49122;BME280;35529;44.342;25.944;2022-10-22T14:20:03;100906.44;;;19.38;76.99
49122;BME280;35529;44.342;25.944;2022-10-22T14:22:29;100904.97;;;19.31;77.96
49122;BME280;35529;44.342;25.944;2022-10-22T14:24:55;100908.88;;;19.23;78.64
49122;BME280;35529;44.342;25.944;2022-10-22T14:27:22;100900.84;;;19.11;79.38
49122;BME280;35529;44.342;25.944;2022-10-22T14:29:48;100894.50;;;19.00;80.71